Time;durP1;ratioP1;P1;durP2;ratioP2;P2;SDS_P1;SDS_P2;PMS_P1;PMS_P2;Temp;Humidity;BMP_temperature;BMP_pressure;BME280_temperature;BME280_humidity;BME280_pressure;Samples;Min_cycle;Max_cycle;Signal;HPM_P1;HPM_P2
2022/08/28 00:00:28;;;;;;;5.97;1.70;;;;;;;;;;5282237;28;20071;-67
2022/08/28 00:02:59;;;;;;;7.85;1.67;;;;;;;;;;5281881;28;20055;-68
2022/08/28 00:05:31;;;;;;;5.88;1.90;;;;;;;;;;5281914;28;20563;-67
2022/08/28 00:08:02;;;;;;;9.77;2.00;;;;;;;;;;5282565;28;20019;-68
2022/08/28 00:10:34;;;;;;;7.18;1.70;;;;;;;;;;5281288;28;20028;-68
2022/08/28 00:13:06;;;;;;;10.52;2.13;;;;;;;;;;5282407;28;20020;-67
2022/08/28 00:15:37;;;;;;;8.07;2.17;;;;;;;;;;5281884;28;20077;-68
2022/08/28 00:18:09;;;;;;;8.63;1.90;;;;;;;;;;5281653;28;20103;-68
2022/08/28 00:20:40;;;;;;;7.97;1.88;;;;;;;;;;5281681;28;20061;-68
2022/08/28 00:23:11;;;;;;;8.63;1.90;;;;;;;;;;5281701;28;20021;-68
2022/08/28 00:25:42;;;;;;;8.02;2.10;;;;;;;;;;5281749;28;20024;-68
2022/08/28 00:28:14;;;;;;;11.13;2.10;;;;;;;;;;5282294;28;20012;-68
2022/08/28 00:30:47;;;;;;;7.93;2.08;;;;;;;;;;5280752;28;20024;-68
2022/08/28 00:33:27;;;;;;;6.75;1.80;;;;;;;;;;5282030;28;20608;-68
2022/08/28 00:35:59;;;;;;;9.40;2.08;;;;;;;;;;5282149;28;20013;-68
2022/08/28 00:38:31;;;;;;;7.97;1.95;;;;;;;;;;5280704;28;20378;-68
2022/08/28 00:41:02;;;;;;;10.98;2.40;;;;;;;;;;5281917;28;20020;-68
2022/08/28 00:43:33;;;;;;;6.95;2.03;;;;;;;;;;5281263;28;20266;-67
2022/08/28 00:46:12;;;;;;;5.45;1.90;;;;;;;;;;5280819;28;20103;-67
2022/08/28 00:48:44;;;;;;;11.00;2.63;;;;;;;;;;5281140;28;20020;-67
2022/08/28 00:54:06;;;;;;;10.85;2.20;;;;;;;;;;5281753;28;20017;-67
2022/08/28 00:56:39;;;;;;;9.00;2.50;;;;;;;;;;5281252;28;20108;-67
2022/08/28 00:59:14;;;;;;;6.65;1.90;;;;;;;;;;5280953;28;20028;-67
2022/08/28 01:01:46;;;;;;;13.32;2.88;;;;;;;;;;5281012;28;20039;-67
2022/08/28 01:04:18;;;;;;;5.70;2.15;;;;;;;;;;5281414;28;20044;-67
2022/08/28 01:06:52;;;;;;;16.98;4.00;;;;;;;;;;5280330;28;20035;-67
2022/08/28 01:09:25;;;;;;;7.57;2.22;;;;;;;;;;5281307;28;20151;-67
2022/08/28 01:12:01;;;;;;;13.10;2.28;;;;;;;;;;5281435;28;20106;-67
2022/08/28 01:14:35;;;;;;;9.48;2.40;;;;;;;;;;5280196;28;20017;-67
2022/08/28 01:17:07;;;;;;;12.02;3.40;;;;;;;;;;5281456;28;20016;-67
2022/08/28 01:19:39;;;;;;;10.55;2.63;;;;;;;;;;5280219;28;20023;-67
2022/08/28 01:22:17;;;;;;;11.10;2.80;;;;;;;;;;5281568;28;20093;-67
2022/08/28 01:24:49;;;;;;;9.95;2.45;;;;;;;;;;5280731;28;20028;-68
2022/08/28 01:27:22;;;;;;;10.00;2.95;;;;;;;;;;5280490;28;20024;-67
2022/08/28 01:29:53;;;;;;;8.73;2.85;;;;;;;;;;5280934;28;20069;-67
2022/08/28 01:32:35;;;;;;;8.80;2.40;;;;;;;;;;5281053;28;20053;-67
2022/08/28 01:35:08;;;;;;;9.50;2.63;;;;;;;;;;5280771;28;20274;-67
2022/08/28 01:37:40;;;;;;;8.80;2.80;;;;;;;;;;5280694;28;20017;-69
2022/08/28 01:40:12;;;;;;;12.48;2.05;;;;;;;;;;5281266;28;20020;-68
2022/08/28 01:42:44;;;;;;;10.93;2.53;;;;;;;;;;5279832;28;20031;-68
2022/08/28 01:45:16;;;;;;;9.73;2.42;;;;;;;;;;5281473;28;20515;-68
2022/08/28 01:47:47;;;;;;;10.73;3.28;;;;;;;;;;5279856;28;20074;-68
2022/08/28 01:50:19;;;;;;;12.43;2.55;;;;;;;;;;5280999;28;20037;-68
2022/08/28 01:52:50;;;;;;;9.85;2.47;;;;;;;;;;5280617;28;20115;-69
2022/08/28 01:55:21;;;;;;;12.38;2.72;;;;;;;;;;5280450;28;20103;-69
2022/08/28 01:57:53;;;;;;;9.77;2.58;;;;;;;;;;5282141;28;20380;-69
2022/08/28 02:00:28;;;;;;;11.02;2.70;;;;;;;;;;5284962;28;20284;-67
2022/08/28 02:02:59;;;;;;;10.23;2.33;;;;;;;;;;5284739;28;20025;-68
2022/08/28 02:05:31;;;;;;;10.60;2.50;;;;;;;;;;5284507;28;20090;-67
2022/08/28 02:08:03;;;;;;;14.38;2.33;;;;;;;;;;5285059;28;20021;-66
2022/08/28 02:10:36;;;;;;;8.77;2.05;;;;;;;;;;5283741;28;20104;-67
2022/08/28 02:13:07;;;;;;;7.20;1.85;;;;;;;;;;5284943;28;20028;-67
2022/08/28 02:15:39;;;;;;;9.98;2.55;;;;;;;;;;5283776;28;20058;-68
2022/08/28 02:18:10;;;;;;;9.63;2.80;;;;;;;;;;5284969;28;20153;-67
2022/08/28 02:20:42;;;;;;;10.43;2.78;;;;;;;;;;5284292;28;20056;-67
2022/08/28 02:23:13;;;;;;;11.63;2.63;;;;;;;;;;5283755;28;20017;-67
2022/08/28 02:25:44;;;;;;;12.05;3.00;;;;;;;;;;5284045;28;21172;-67
2022/08/28 02:28:15;;;;;;;7.03;2.47;;;;;;;;;;5284806;28;20012;-67
2022/08/28 02:30:47;;;;;;;14.57;4.03;;;;;;;;;;5283363;28;20294;-67
2022/08/28 02:33:18;;;;;;;9.77;2.92;;;;;;;;;;5284365;28;20269;-67
2022/08/28 02:35:49;;;;;;;6.78;2.22;;;;;;;;;;5283901;28;20412;-68
2022/08/28 02:38:21;;;;;;;8.32;2.72;;;;;;;;;;5283816;28;20020;-67
2022/08/28 02:40:52;;;;;;;12.13;2.42;;;;;;;;;;5283699;28;20107;-67
2022/08/28 02:43:23;;;;;;;14.07;3.93;;;;;;;;;;5284167;28;20431;-67
2022/08/28 02:45:54;;;;;;;7.78;2.75;;;;;;;;;;5283243;28;20270;-67
2022/08/28 02:48:30;;;;;;;9.82;2.17;;;;;;;;;;5283561;28;20704;-67
2022/08/28 02:51:10;;;;;;;9.60;3.58;;;;;;;;;;5283448;28;20322;-67
2022/08/28 02:53:41;;;;;;;9.30;2.63;;;;;;;;;;5283365;28;20025;-68
2022/08/28 02:56:12;;;;;;;9.18;2.65;;;;;;;;;;5284149;28;20073;-67
2022/08/28 02:58:43;;;;;;;12.38;2.33;;;;;;;;;;5282791;28;20023;-68
2022/08/28 03:01:15;;;;;;;9.23;2.40;;;;;;;;;;5283958;28;20271;-67
2022/08/28 03:03:46;;;;;;;17.67;3.42;;;;;;;;;;5283542;28;20373;-69
2022/08/28 03:06:17;;;;;;;8.00;2.60;;;;;;;;;;5283372;28;20028;-67
2022/08/28 03:08:48;;;;;;;12.63;2.55;;;;;;;;;;5282829;28;20259;-67
2022/08/28 03:11:19;;;;;;;9.27;2.38;;;;;;;;;;5283655;28;20036;-67
2022/08/28 03:13:51;;;;;;;6.28;1.90;;;;;;;;;;5282341;28;20323;-67
2022/08/28 03:16:24;;;;;;;8.68;2.55;;;;;;;;;;5283795;28;20463;-67
2022/08/28 03:18:55;;;;;;;9.60;2.65;;;;;;;;;;5282690;28;20024;-67
2022/08/28 03:21:26;;;;;;;7.13;2.15;;;;;;;;;;5283030;28;20173;-67
2022/08/28 03:23:57;;;;;;;9.07;2.72;;;;;;;;;;5283520;28;20379;-67
2022/08/28 03:26:28;;;;;;;11.48;2.28;;;;;;;;;;5282397;28;20025;-67
2022/08/28 03:29:00;;;;;;;11.07;3.20;;;;;;;;;;5283628;28;20024;-67
2022/08/28 03:31:32;;;;;;;7.10;1.83;;;;;;;;;;5282877;28;20370;-67
2022/08/28 03:34:04;;;;;;;6.88;2.35;;;;;;;;;;5282585;28;20020;-67
2022/08/28 03:36:35;;;;;;;9.57;2.60;;;;;;;;;;5282785;28;20037;-67
2022/08/28 03:39:06;;;;;;;10.40;3.40;;;;;;;;;;5283695;28;20024;-67
2022/08/28 03:41:39;;;;;;;9.10;2.28;;;;;;;;;;5282083;28;20355;-67
2022/08/28 03:44:10;;;;;;;9.70;2.67;;;;;;;;;;5283171;28;20289;-67
2022/08/28 03:46:41;;;;;;;7.72;2.70;;;;;;;;;;5282601;28;20020;-67
2022/08/28 03:49:13;;;;;;;13.52;3.10;;;;;;;;;;5282243;28;20021;-67
2022/08/28 03:51:44;;;;;;;6.20;2.67;;;;;;;;;;5282607;28;20518;-67
2022/08/28 03:54:15;;;;;;;11.77;2.83;;;;;;;;;;5282136;28;20364;-67
2022/08/28 03:56:46;;;;;;;9.90;2.80;;;;;;;;;;5282424;28;20060;-67
2022/08/28 03:59:19;;;;;;;8.20;2.90;;;;;;;;;;5282722;28;20267;-67
2022/08/28 04:01:51;;;;;;;10.95;3.20;;;;;;;;;;5281406;28;20020;-67
2022/08/28 04:04:22;;;;;;;12.23;2.80;;;;;;;;;;5282645;28;20051;-67
2022/08/28 04:06:53;;;;;;;9.18;2.88;;;;;;;;;;5282209;28;20048;-68
2022/08/28 04:09:24;;;;;;;7.90;2.72;;;;;;;;;;5281569;28;20622;-67
2022/08/28 04:11:55;;;;;;;11.10;3.50;;;;;;;;;;5282077;28;20529;-67
2022/08/28 04:14:26;;;;;;;7.63;3.03;;;;;;;;;;5282149;28;20277;-67
2022/08/28 04:16:58;;;;;;;8.20;3.53;;;;;;;;;;5281897;28;20266;-69
2022/08/28 04:19:29;;;;;;;8.13;3.05;;;;;;;;;;5281393;28;20357;-67
2022/08/28 04:22:00;;;;;;;9.88;3.92;;;;;;;;;;5281954;28;20262;-67
2022/08/28 04:24:31;;;;;;;9.13;3.35;;;;;;;;;;5280909;28;20271;-67
2022/08/28 04:27:02;;;;;;;8.00;3.72;;;;;;;;;;5282357;28;20016;-67
2022/08/28 04:29:34;;;;;;;7.60;3.25;;;;;;;;;;5281021;28;20081;-67
2022/08/28 04:32:05;;;;;;;7.47;2.83;;;;;;;;;;5281886;28;20035;-67
2022/08/28 04:34:37;;;;;;;9.57;2.97;;;;;;;;;;5281637;28;20664;-67
2022/08/28 04:37:08;;;;;;;10.13;3.13;;;;;;;;;;5281147;28;20013;-67
2022/08/28 04:39:39;;;;;;;6.18;2.33;;;;;;;;;;5281093;28;20099;-67
2022/08/28 04:42:10;;;;;;;10.63;2.38;;;;;;;;;;5281734;28;20476;-67
2022/08/28 04:44:41;;;;;;;7.05;2.83;;;;;;;;;;5280520;28;20947;-67
2022/08/28 04:47:13;;;;;;;11.23;3.50;;;;;;;;;;5281693;28;20032;-67
2022/08/28 04:49:44;;;;;;;14.63;3.33;;;;;;;;;;5281110;28;20162;-68
2022/08/28 04:52:15;;;;;;;9.23;2.58;;;;;;;;;;5280898;28;20476;-68
2022/08/28 04:54:46;;;;;;;9.30;3.05;;;;;;;;;;5281240;28;20259;-67
2022/08/28 04:57:17;;;;;;;13.13;3.88;;;;;;;;;;5280843;28;20021;-68
2022/08/28 04:59:48;;;;;;;8.03;2.63;;;;;;;;;;5281026;28;20039;-68
2022/08/28 05:02:20;;;;;;;13.13;2.15;;;;;;;;;;5281743;28;20267;-68
2022/08/28 05:04:51;;;;;;;10.50;3.33;;;;;;;;;;5280005;28;20290;-68
2022/08/28 05:07:22;;;;;;;10.00;3.70;;;;;;;;;;5281721;28;20091;-68
2022/08/28 05:09:53;;;;;;;6.15;2.30;;;;;;;;;;5281006;28;20016;-68
2022/08/28 05:12:25;;;;;;;8.35;2.47;;;;;;;;;;5280239;28;20298;-69
2022/08/28 05:14:56;;;;;;;7.72;2.20;;;;;;;;;;5281497;28;20017;-67
2022/08/28 05:17:27;;;;;;;8.35;2.20;;;;;;;;;;5280731;28;20051;-68
2022/08/28 05:19:59;;;;;;;6.85;2.72;;;;;;;;;;5280980;28;20875;-67
2022/08/28 05:22:31;;;;;;;9.85;2.33;;;;;;;;;;5280595;28;20020;-68
2022/08/28 05:25:02;;;;;;;12.18;3.38;;;;;;;;;;5281248;28;20270;-68
2022/08/28 05:27:34;;;;;;;7.07;2.30;;;;;;;;;;5279852;28;20017;-68
2022/08/28 05:30:06;;;;;;;10.00;2.40;;;;;;;;;;5281432;28;20021;-67
2022/08/28 05:32:37;;;;;;;8.27;2.70;;;;;;;;;;5279481;28;20394;-67
2022/08/28 05:35:08;;;;;;;11.10;2.63;;;;;;;;;;5281119;28;20021;-68
2022/08/28 05:37:39;;;;;;;9.75;2.72;;;;;;;;;;5280599;28;20373;-68
2022/08/28 05:40:11;;;;;;;10.80;2.42;;;;;;;;;;5280512;28;20021;-67
2022/08/28 05:42:43;;;;;;;10.45;2.40;;;;;;;;;;5280671;28;20678;-67
2022/08/28 05:45:14;;;;;;;8.70;3.22;;;;;;;;;;5281046;28;20021;-67
2022/08/28 05:47:45;;;;;;;12.70;2.30;;;;;;;;;;5279920;28;20501;-68
2022/08/28 05:50:17;;;;;;;8.45;2.80;;;;;;;;;;5281258;28;20016;-67
2022/08/28 05:52:48;;;;;;;7.05;2.88;;;;;;;;;;5280479;28;20399;-67
2022/08/28 05:55:19;;;;;;;8.40;2.47;;;;;;;;;;5280199;28;20013;-67
2022/08/28 05:57:50;;;;;;;9.27;3.20;;;;;;;;;;5280369;28;20025;-68
2022/08/28 06:00:21;;;;;;;9.40;2.75;;;;;;;;;;5280921;28;20760;-68
2022/08/28 06:02:52;;;;;;;10.05;2.60;;;;;;;;;;5279734;28;20775;-67
2022/08/28 06:05:24;;;;;;;10.10;2.60;;;;;;;;;;5280583;28;20040;-67
2022/08/28 06:07:55;;;;;;;8.32;2.30;;;;;;;;;;5279869;28;20285;-68
2022/08/28 06:10:27;;;;;;;7.22;2.88;;;;;;;;;;5280181;28;20424;-67
2022/08/28 06:12:58;;;;;;;10.57;2.63;;;;;;;;;;5280841;28;20275;-67
2022/08/28 06:15:29;;;;;;;11.07;3.20;;;;;;;;;;5279648;28;20478;-67
2022/08/28 06:18:00;;;;;;;8.05;2.58;;;;;;;;;;5280978;28;20460;-67
2022/08/28 06:20:36;;;;;;;10.18;2.45;;;;;;;;;;5280369;28;20040;-68
2022/08/28 06:23:08;;;;;;;7.95;2.33;;;;;;;;;;5279866;28;20723;-68
2022/08/28 06:25:40;;;;;;;10.20;2.63;;;;;;;;;;5280307;28;20058;-67
2022/08/28 06:28:12;;;;;;;11.05;2.55;;;;;;;;;;5280882;28;20021;-67
2022/08/28 06:30:44;;;;;;;10.35;2.97;;;;;;;;;;5279284;28;20027;-68
2022/08/28 06:33:15;;;;;;;8.77;2.40;;;;;;;;;;5280739;28;20480;-67
2022/08/28 06:35:48;;;;;;;10.95;2.58;;;;;;;;;;5279297;28;20017;-68
2022/08/28 06:38:20;;;;;;;12.73;2.92;;;;;;;;;;5280500;28;20115;-67
2022/08/28 06:40:53;;;;;;;11.30;2.60;;;;;;;;;;5280238;28;20028;-68
2022/08/28 06:43:26;;;;;;;12.65;2.63;;;;;;;;;;5280333;28;20054;-68
2022/08/28 06:45:57;;;;;;;11.50;2.65;;;;;;;;;;5284210;28;20164;-68
2022/08/28 06:48:29;;;;;;;9.05;2.88;;;;;;;;;;5283660;28;20013;-68
2022/08/28 06:51:00;;;;;;;9.88;2.60;;;;;;;;;;5283355;28;20430;-68
2022/08/28 06:53:32;;;;;;;8.50;2.67;;;;;;;;;;5279056;28;20494;-67
2022/08/28 06:56:06;;;;;;;8.70;2.30;;;;;;;;;;5272292;28;20263;-68
2022/08/28 06:58:39;;;;;;;9.27;2.65;;;;;;;;;;5281559;28;20021;-68
2022/08/28 07:01:12;;;;;;;9.25;2.03;;;;;;;;;;5282879;28;20023;-68
2022/08/28 07:03:44;;;;;;;9.82;2.92;;;;;;;;;;5281836;28;20020;-68
2022/08/28 07:06:15;;;;;;;9.40;2.20;;;;;;;;;;5282363;28;20025;-68
2022/08/28 07:08:46;;;;;;;9.55;2.15;;;;;;;;;;5282247;28;20021;-68
2022/08/28 07:11:20;;;;;;;12.45;2.35;;;;;;;;;;5282429;28;20554;-68
2022/08/28 07:13:52;;;;;;;9.75;1.92;;;;;;;;;;5282364;28;20044;-67
2022/08/28 07:16:25;;;;;;;11.40;2.25;;;;;;;;;;5282565;28;20058;-67
2022/08/28 07:18:57;;;;;;;7.45;1.40;;;;;;;;;;5282526;28;20322;-68
2022/08/28 07:21:29;;;;;;;16.48;2.35;;;;;;;;;;5282224;28;20093;-69
2022/08/28 07:24:02;;;;;;;11.30;1.98;;;;;;;;;;5283219;28;20047;-69
2022/08/28 07:26:33;;;;;;;8.50;1.65;;;;;;;;;;5281432;28;20012;-68
2022/08/28 07:29:06;;;;;;;10.75;1.50;;;;;;;;;;5282712;28;20025;-69
2022/08/28 07:31:39;;;;;;;8.43;1.55;;;;;;;;;;5282807;28;20087;-72
2022/08/28 07:34:12;;;;;;;7.50;1.30;;;;;;;;;;5282951;28;20075;-71
2022/08/28 07:36:43;;;;;;;8.70;1.77;;;;;;;;;;5282563;28;20372;-69
2022/08/28 07:39:14;;;;;;;10.25;1.30;;;;;;;;;;5282683;28;20516;-70
2022/08/28 07:41:46;;;;;;;11.30;1.45;;;;;;;;;;5282755;28;20120;-70
2022/08/28 07:47:10;;;;;;;7.50;0.93;;;;;;;;;;5282442;28;20047;-70
2022/08/28 07:49:42;;;;;;;12.50;1.55;;;;;;;;;;5282145;28;20029;-70
2022/08/28 07:52:13;;;;;;;8.82;1.27;;;;;;;;;;5282856;28;20455;-70
2022/08/28 07:54:44;;;;;;;6.47;0.88;;;;;;;;;;5281392;28;20107;-71
2022/08/28 07:57:16;;;;;;;12.32;1.05;;;;;;;;;;5283112;28;20021;-70
2022/08/28 07:59:47;;;;;;;10.60;1.02;;;;;;;;;;5281966;28;20274;-70
2022/08/28 08:02:19;;;;;;;11.27;2.42;;;;;;;;;;5281961;28;20422;-71
2022/08/28 08:04:50;;;;;;;5.22;0.90;;;;;;;;;;5282063;28;20502;-71
2022/08/28 08:07:21;;;;;;;7.95;1.10;;;;;;;;;;5281849;28;20420;-71
2022/08/28 08:09:52;;;;;;;8.23;0.90;;;;;;;;;;5281983;28;20019;-70
2022/08/28 08:12:24;;;;;;;6.95;1.02;;;;;;;;;;5282178;28;20316;-71
2022/08/28 08:14:55;;;;;;;10.57;0.98;;;;;;;;;;5281551;28;20021;-68
2022/08/28 08:17:26;;;;;;;8.35;0.95;;;;;;;;;;5281997;28;20017;-69
2022/08/28 08:19:57;;;;;;;4.88;0.75;;;;;;;;;;5282452;28;20052;-68
2022/08/28 08:22:28;;;;;;;7.32;1.50;;;;;;;;;;5281223;28;20016;-68
2022/08/28 08:25:02;;;;;;;8.23;0.80;;;;;;;;;;5282495;28;20020;-68
2022/08/28 08:27:34;;;;;;;8.23;1.50;;;;;;;;;;5281833;28;20369;-68
2022/08/28 08:30:06;;;;;;;6.03;0.98;;;;;;;;;;5281508;28;20036;-68
2022/08/28 08:32:38;;;;;;;6.13;1.02;;;;;;;;;;5281887;28;20040;-67
2022/08/28 08:35:11;;;;;;;5.72;0.70;;;;;;;;;;5282296;28;20111;-67
2022/08/28 08:37:42;;;;;;;6.68;0.80;;;;;;;;;;5280870;28;20024;-67
2022/08/28 08:40:17;;;;;;;7.50;1.13;;;;;;;;;;5281959;28;20137;-66
2022/08/28 08:42:54;;;;;;;5.95;0.63;;;;;;;;;;5280617;28;20024;-67
2022/08/28 08:45:28;;;;;;;8.23;0.60;;;;;;;;;;5272056;28;20044;-67
2022/08/28 08:47:59;;;;;;;6.78;1.10;;;;;;;;;;5269191;28;20032;-66
2022/08/28 08:50:33;;;;;;;3.60;0.60;;;;;;;;;;5280340;28;20017;-68
2022/08/28 08:53:27;;;;;;;9.68;1.13;;;;;;;;;;5281565;28;20040;-67
2022/08/28 08:55:58;;;;;;;5.00;0.63;;;;;;;;;;5281223;28;20464;-68
2022/08/28 08:58:40;;;;;;;5.85;0.50;;;;;;;;;;5280206;28;20051;-68
2022/08/28 09:01:20;;;;;;;5.95;0.63;;;;;;;;;;5281764;28;20120;-67
2022/08/28 09:03:52;;;;;;;8.20;0.60;;;;;;;;;;5280396;28;20086;-68
2022/08/28 09:06:26;;;;;;;4.30;0.60;;;;;;;;;;5280958;28;20020;-67
2022/08/28 09:08:58;;;;;;;5.32;0.70;;;;;;;;;;5281157;28;20032;-67
2022/08/28 09:11:30;;;;;;;4.65;0.70;;;;;;;;;;5279893;28;20447;-67
2022/08/28 09:14:06;;;;;;;4.70;0.50;;;;;;;;;;5281634;28;20059;-67
2022/08/28 09:16:39;;;;;;;2.05;0.43;;;;;;;;;;5280786;28;20030;-68
2022/08/28 09:19:13;;;;;;;5.60;0.50;;;;;;;;;;5280534;28;20032;-67
2022/08/28 09:21:45;;;;;;;3.67;0.70;;;;;;;;;;5280873;28;20044;-67
2022/08/28 09:24:19;;;;;;;6.13;1.05;;;;;;;;;;5281290;28;20082;-67
2022/08/28 09:26:51;;;;;;;7.13;0.50;;;;;;;;;;5279780;28;20016;-68
2022/08/28 09:29:25;;;;;;;5.70;0.50;;;;;;;;;;5281207;28;20421;-68
2022/08/28 09:31:57;;;;;;;3.22;0.50;;;;;;;;;;5280446;28;20476;-67
2022/08/28 09:34:33;;;;;;;7.07;0.50;;;;;;;;;;5277344;28;20017;-67
2022/08/28 09:37:07;;;;;;;6.55;0.60;;;;;;;;;;5280985;28;20064;-67
2022/08/28 09:39:39;;;;;;;5.10;0.50;;;;;;;;;;5279363;28;20051;-67
2022/08/28 09:45:15;;;;;;;5.97;1.10;;;;;;;;;;5280823;28;20021;-66
2022/08/28 09:47:50;;;;;;;5.30;0.63;;;;;;;;;;5278534;28;20081;-68
2022/08/28 09:50:30;;;;;;;5.55;0.50;;;;;;;;;;5271326;28;20387;-70
2022/08/28 09:53:07;;;;;;;4.60;0.85;;;;;;;;;;5262471;28;20032;-70
2022/08/28 09:55:47;;;;;;;4.55;0.60;;;;;;;;;;5258660;28;20487;-69
2022/08/28 09:58:19;;;;;;;4.38;0.50;;;;;;;;;;5270168;28;20036;-69
2022/08/28 10:00:54;;;;;;;2.85;0.52;;;;;;;;;;5278745;28;20436;-69
2022/08/28 10:03:44;;;;;;;4.05;0.60;;;;;;;;;;5279364;28;20021;-70
2022/08/28 10:06:34;;;;;;;3.58;0.45;;;;;;;;;;5280537;28;20388;-70
2022/08/28 10:09:26;;;;;;;4.90;0.60;;;;;;;;;;5279463;28;20476;-68
2022/08/28 10:12:10;;;;;;;3.90;0.60;;;;;;;;;;5279967;28;20040;-68
2022/08/28 10:14:41;;;;;;;4.60;0.45;;;;;;;;;;5279551;28;20416;-70
2022/08/28 10:17:21;;;;;;;5.20;0.60;;;;;;;;;;5280685;28;20086;-70
2022/08/28 10:19:59;;;;;;;4.03;0.65;;;;;;;;;;5282845;28;20348;-68
2022/08/28 10:22:48;;;;;;;4.20;0.50;;;;;;;;;;5282643;28;20008;-68
2022/08/28 10:25:29;;;;;;;3.67;0.43;;;;;;;;;;5284176;28;20020;-68
2022/08/28 10:28:19;;;;;;;3.63;0.50;;;;;;;;;;5283448;28;20029;-69
2022/08/28 10:30:53;;;;;;;4.68;0.50;;;;;;;;;;5283398;28;20486;-68
2022/08/28 10:33:32;;;;;;;5.13;0.50;;;;;;;;;;5283882;28;20492;-67
2022/08/28 10:36:03;;;;;;;;;;;;;;;;;;5283442;28;20021;-67
2022/08/28 10:38:36;;;;;;;4.32;0.50;;;;;;;;;;5283471;28;20286;-66
2022/08/28 10:41:15;;;;;;;3.58;0.40;;;;;;;;;;5284265;28;20043;-67
2022/08/28 10:43:48;;;;;;;3.30;0.50;;;;;;;;;;5282925;28;20025;-67
2022/08/28 10:46:19;;;;;;;5.05;0.50;;;;;;;;;;5284305;28;20542;-68
2022/08/28 10:48:54;;;;;;;3.77;0.50;;;;;;;;;;5283486;28;20095;-67
2022/08/28 10:51:34;;;;;;;4.00;0.50;;;;;;;;;;5283489;28;20416;-67
2022/08/28 10:54:11;;;;;;;2.80;0.40;;;;;;;;;;5283848;28;20025;-67
2022/08/28 10:56:43;;;;;;;7.63;1.20;;;;;;;;;;5282749;28;20070;-67
2022/08/28 10:59:14;;;;;;;3.53;0.47;;;;;;;;;;5283920;28;20114;-69
2022/08/28 11:01:46;;;;;;;5.10;0.50;;;;;;;;;;5283348;28;20470;-67
2022/08/28 11:04:19;;;;;;;6.93;0.82;;;;;;;;;;5283021;28;20412;-68
2022/08/28 11:06:52;;;;;;;4.85;0.57;;;;;;;;;;5283637;28;20008;-67
2022/08/28 11:09:29;;;;;;;9.07;0.90;;;;;;;;;;5283758;28;20025;-68
2022/08/28 11:12:06;;;;;;;2.35;0.40;;;;;;;;;;5283327;28;20125;-68
2022/08/28 11:14:39;;;;;;;5.10;0.50;;;;;;;;;;5283172;28;20020;-68
2022/08/28 11:17:30;;;;;;;4.03;0.40;;;;;;;;;;5283092;28;20119;-68
2022/08/28 11:20:14;;;;;;;2.63;0.40;;;;;;;;;;5283440;28;20050;-68
2022/08/28 11:22:50;;;;;;;2.42;0.40;;;;;;;;;;5283216;28;20345;-68
2022/08/28 11:25:24;;;;;;;4.00;0.60;;;;;;;;;;5282667;28;20497;-67
2022/08/28 11:28:15;;;;;;;3.28;0.50;;;;;;;;;;5282682;28;20024;-67
2022/08/28 11:30:47;;;;;;;3.97;0.55;;;;;;;;;;5282546;28;20029;-67
2022/08/28 11:33:37;;;;;;;5.30;0.60;;;;;;;;;;5282539;28;20031;-67
2022/08/28 11:36:10;;;;;;;2.03;0.50;;;;;;;;;;5283344;28;20124;-66
2022/08/28 11:38:42;;;;;;;2.58;0.40;;;;;;;;;;5281529;28;20375;-66
2022/08/28 11:41:13;;;;;;;4.28;0.45;;;;;;;;;;5267474;28;20029;-67
2022/08/28 11:43:45;;;;;;;3.60;0.40;;;;;;;;;;5261726;28;20084;-66
2022/08/28 11:46:42;;;;;;;5.53;0.65;;;;;;;;;;5261430;28;20035;-66
2022/08/28 11:49:26;;;;;;;2.95;0.40;;;;;;;;;;5257233;28;20131;-66
2022/08/28 11:52:00;;;;;;;3.70;0.50;;;;;;;;;;5262034;28;20083;-67
2022/08/28 11:54:50;;;;;;;4.50;0.40;;;;;;;;;;5260736;28;20100;-66
2022/08/28 11:57:24;;;;;;;4.22;0.40;;;;;;;;;;5262195;28;20021;-68
2022/08/28 12:00:07;;;;;;;2.20;0.40;;;;;;;;;;5261096;28;20023;-68
2022/08/28 12:02:38;;;;;;;8.50;0.75;;;;;;;;;;5261488;28;20028;-68
2022/08/28 12:05:15;;;;;;;2.28;0.40;;;;;;;;;;5264557;28;20040;-68
2022/08/28 12:07:48;;;;;;;2.78;0.35;;;;;;;;;;5271788;28;20024;-68
2022/08/28 12:10:19;;;;;;;3.65;0.40;;;;;;;;;;5264407;28;20423;-67
2022/08/28 12:12:53;;;;;;;1.60;0.30;;;;;;;;;;5270386;28;20090;-68
2022/08/28 12:15:27;;;;;;;2.17;0.40;;;;;;;;;;5260650;28;20017;-69
2022/08/28 12:18:04;;;;;;;4.00;0.50;;;;;;;;;;5261826;28;20039;-69
2022/08/28 12:20:37;;;;;;;2.47;0.40;;;;;;;;;;5260275;28;20019;-68
2022/08/28 12:23:27;;;;;;;3.72;0.40;;;;;;;;;;5261533;28;20017;-68
2022/08/28 12:26:10;;;;;;;3.33;0.40;;;;;;;;;;5261726;28;20434;-68
2022/08/28 12:28:46;;;;;;;2.22;0.40;;;;;;;;;;5260264;28;20021;-67
2022/08/28 12:34:23;;;;;;;2.30;0.40;;;;;;;;;;5261316;28;20036;-67
2022/08/28 12:36:55;;;;;;;4.47;0.90;;;;;;;;;;5261031;28;20463;-67
2022/08/28 12:39:29;;;;;;;6.40;0.47;;;;;;;;;;5260858;28;20271;-68
2022/08/28 12:42:01;;;;;;;2.10;0.38;;;;;;;;;;5259937;28;20017;-67
2022/08/28 12:44:33;;;;;;;2.70;0.40;;;;;;;;;;5260473;28;20420;-67
2022/08/28 12:47:04;;;;;;;2.85;0.40;;;;;;;;;;5261065;28;20025;-67
2022/08/28 12:49:36;;;;;;;3.20;0.40;;;;;;;;;;5269028;28;20021;-68
2022/08/28 12:52:12;;;;;;;2.80;0.57;;;;;;;;;;5281531;28;20135;-67
2022/08/28 12:54:44;;;;;;;3.85;0.35;;;;;;;;;;5280789;28;20032;-67
2022/08/28 12:57:17;;;;;;;2.20;0.30;;;;;;;;;;5280918;28;20491;-68
2022/08/28 12:59:49;;;;;;;3.53;0.52;;;;;;;;;;5280786;28;20066;-67
2022/08/28 13:02:26;;;;;;;2.03;0.40;;;;;;;;;;5281631;28;20027;-67
2022/08/28 13:05:08;;;;;;;1.90;0.30;;;;;;;;;;5280465;28;20557;-67
2022/08/28 13:07:44;;;;;;;5.93;0.43;;;;;;;;;;5281140;28;20100;-68
2022/08/28 13:10:15;;;;;;;3.55;0.40;;;;;;;;;;5280491;28;20032;-67
2022/08/28 13:12:52;;;;;;;2.97;0.30;;;;;;;;;;5280598;28;20028;-67
2022/08/28 13:15:41;;;;;;;1.45;0.30;;;;;;;;;;5281087;28;20027;-68
2022/08/28 13:18:31;;;;;;;5.00;0.47;;;;;;;;;;5280659;28;20416;-67
2022/08/28 13:21:17;;;;;;;2.20;0.30;;;;;;;;;;5281153;28;20016;-67
2022/08/28 13:23:50;;;;;;;1.60;0.30;;;;;;;;;;5279914;28;20021;-68
2022/08/28 13:26:21;;;;;;;3.60;0.40;;;;;;;;;;5281251;28;20040;-67
2022/08/28 13:28:53;;;;;;;2.60;0.30;;;;;;;;;;5280653;28;20510;-67
2022/08/28 13:31:26;;;;;;;2.22;0.32;;;;;;;;;;5279966;28;20055;-67
2022/08/28 13:34:10;;;;;;;4.47;0.40;;;;;;;;;;5280923;28;20028;-67
2022/08/28 13:36:43;;;;;;;2.97;0.30;;;;;;;;;;5280390;28;20031;-67
2022/08/28 13:39:15;;;;;;;1.20;0.30;;;;;;;;;;5280388;28;20112;-67
2022/08/28 13:41:48;;;;;;;1.33;0.30;;;;;;;;;;5280378;28;20085;-68
2022/08/28 13:44:39;;;;;;;2.55;0.30;;;;;;;;;;5280996;28;20023;-67
2022/08/28 13:47:12;;;;;;;5.28;0.40;;;;;;;;;;5280211;28;20083;-69
2022/08/28 13:49:43;;;;;;;2.67;0.30;;;;;;;;;;5280377;28;20383;-67
2022/08/28 13:52:15;;;;;;;3.55;0.30;;;;;;;;;;5280711;28;20028;-66
2022/08/28 13:54:46;;;;;;;4.63;0.40;;;;;;;;;;5284745;28;20016;-67
2022/08/28 13:57:17;;;;;;;2.70;0.30;;;;;;;;;;5285391;28;20027;-66
2022/08/28 13:59:48;;;;;;;4.07;0.40;;;;;;;;;;5272633;28;20440;-66
2022/08/28 14:05:29;;;;;;;3.33;0.40;;;;;;;;;;5199216;28;20053;-67
2022/08/28 14:08:02;;;;;;;3.00;0.30;;;;;;;;;;5210409;28;20026;-66
2022/08/28 14:10:34;;;;;;;3.08;0.30;;;;;;;;;;5255915;28;20040;-66
2022/08/28 14:13:05;;;;;;;4.32;0.40;;;;;;;;;;5284145;28;20024;-66
2022/08/28 14:15:37;;;;;;;2.50;0.40;;;;;;;;;;5283956;28;20100;-66
2022/08/28 14:18:08;;;;;;;4.18;0.35;;;;;;;;;;5284654;28;20104;-66
2022/08/28 14:20:39;;;;;;;4.38;0.30;;;;;;;;;;5283716;28;20020;-66
2022/08/28 14:23:11;;;;;;;4.97;0.50;;;;;;;;;;5284877;28;20021;-67
2022/08/28 14:25:43;;;;;;;3.83;0.30;;;;;;;;;;5284130;28;20894;-67
2022/08/28 14:28:14;;;;;;;3.58;0.40;;;;;;;;;;5283819;28;20032;-67
2022/08/28 14:30:48;;;;;;;1.92;0.40;;;;;;;;;;5283708;28;20523;-68
2022/08/28 14:33:19;;;;;;;3.17;0.75;;;;;;;;;;5284867;28;20477;-66
2022/08/28 14:35:50;;;;;;;2.95;0.30;;;;;;;;;;5283488;28;20012;-66
2022/08/28 14:38:22;;;;;;;1.70;0.30;;;;;;;;;;5284501;28;20028;-66
2022/08/28 14:40:53;;;;;;;1.50;0.35;;;;;;;;;;5283694;28;20291;-67
2022/08/28 14:43:24;;;;;;;1.55;0.47;;;;;;;;;;5283112;28;20020;-67
2022/08/28 14:45:56;;;;;;;2.70;0.30;;;;;;;;;;5284375;28;20426;-66
2022/08/28 14:48:27;;;;;;;1.63;0.25;;;;;;;;;;5283100;28;20337;-66
2022/08/28 14:51:00;;;;;;;2.15;0.30;;;;;;;;;;5284217;28;20070;-67
2022/08/28 14:53:31;;;;;;;1.98;0.40;;;;;;;;;;5283498;28;20033;-67
2022/08/28 14:56:04;;;;;;;1.63;0.40;;;;;;;;;;5283558;28;20485;-67
2022/08/28 14:58:36;;;;;;;3.80;0.40;;;;;;;;;;5283572;28;20270;-68
2022/08/28 15:01:07;;;;;;;2.13;0.50;;;;;;;;;;5284083;28;20020;-66
2022/08/28 15:03:39;;;;;;;1.15;0.38;;;;;;;;;;5282198;28;20402;-67
2022/08/28 15:06:10;;;;;;;3.08;0.38;;;;;;;;;;5283442;28;20368;-67
2022/08/28 15:08:41;;;;;;;3.33;0.30;;;;;;;;;;5283486;28;20488;-67
2022/08/28 15:11:14;;;;;;;3.22;0.40;;;;;;;;;;5283110;28;20056;-67
2022/08/28 15:13:46;;;;;;;1.80;0.30;;;;;;;;;;5283377;28;20439;-67
2022/08/28 15:16:24;;;;;;;2.90;0.40;;;;;;;;;;5283048;28;20150;-67
2022/08/28 15:18:56;;;;;;;1.88;0.40;;;;;;;;;;5283534;28;20012;-67
2022/08/28 15:21:29;;;;;;;1.60;0.40;;;;;;;;;;5283493;28;20032;-67
2022/08/28 15:24:01;;;;;;;2.85;0.40;;;;;;;;;;5283195;28;20021;-67
2022/08/28 15:26:32;;;;;;;2.92;0.40;;;;;;;;;;5283037;28;20008;-67
2022/08/28 15:29:05;;;;;;;1.83;0.30;;;;;;;;;;5283620;28;20023;-67
2022/08/28 15:31:38;;;;;;;2.80;0.30;;;;;;;;;;5282052;28;20028;-67